PWSweather.com
Personal Weather Stations
Station Observations
MENWDWX1
Menstrie, ScotlandGB

MenstrieScotlandGB

Lat: 56.148322, Lon: -3.85483

Elevation: 62

Station Type: Davis Vantage Pro 2

Latest ConditionsUpdated 9:05:01 AM GMT Friday, Feb 22, 2019
Currently Today's Max Today's Min Today's Average
Temperature 52.0°F11.1°C 52.1°F11.2°C 47.9°F8.8°C 49.7°F9.8°C
Dew Point 44.0°F6.7°C 44.0°F6.7°C 42.0°F5.6°C 43.2°F6.2°C
Winds Calm Calm 8.1 mph -13.0 kmh - - 2.6 mph 4.2 kmh
Wind Gusts 1.2 mph1.9 kmh 9.2 mph14.8 kmh - -
Humidity 74% 80% 72% 78%
Pressure 30.35 in1027.8 mb 30.35 in1027.8 mb 30.27 in1025.1 mb -
Hour Temp Dew Point Humidity Winds Wind Gusts Pressure Precip Precip Rate Daily Precip Total
09:05 AM 52.0°F11.1°C 44.0°F6.7°C 74% Calm Calm 1.2 mph1.9 kmh 30.35 in1027.8 mb - 0.00 in0.0 mm 0.00 in0.0 mm
09:00 AM 52.1°F11.2°C 43.7°F6.5°C 73% 2.3 mph NE3.7 kmh NE 2.3 mph3.7 kmh 30.35 in1027.8 mb - 0.00 in0.0 mm 0.00 in0.0 mm
08:55 AM 52.0°F11.1°C 43.3°F6.3°C 72% 2.3 mph NE3.7 kmh NE 3.5 mph5.6 kmh 30.34 in1027.4 mb - 0.00 in0.0 mm 0.00 in0.0 mm
08:50 AM 52.0°F11.1°C 43.6°F6.4°C 73% 1.2 mph ENE1.9 kmh ENE 1.2 mph1.9 kmh 30.34 in1027.4 mb - 0.00 in0.0 mm 0.00 in0.0 mm
08:45 AM 51.9°F11.1°C 43.5°F6.4°C 73% 1.2 mph E1.9 kmh E 3.5 mph5.6 kmh 30.34 in1027.4 mb - 0.00 in0.0 mm 0.00 in0.0 mm
08:40 AM 51.8°F11.0°C 43.4°F6.3°C 73% 2.3 mph E3.7 kmh E 2.3 mph3.7 kmh 30.34 in1027.4 mb - 0.00 in0.0 mm 0.00 in0.0 mm
08:35 AM 51.6°F10.9°C 43.3°F6.3°C 73% 2.3 mph E3.7 kmh E 3.5 mph5.6 kmh 30.33 in1027.1 mb - 0.00 in0.0 mm 0.00 in0.0 mm
08:30 AM 51.5°F10.8°C 43.5°F6.4°C 74% 2.3 mph SE3.7 kmh SE 3.5 mph5.6 kmh 30.34 in1027.4 mb - 0.00 in0.0 mm 0.00 in0.0 mm
08:25 AM 51.3°F10.7°C 43.3°F6.3°C 74% 2.3 mph ENE3.7 kmh ENE 3.5 mph5.6 kmh 30.33 in1027.1 mb - 0.00 in0.0 mm 0.00 in0.0 mm
08:20 AM 51.2°F10.7°C 43.5°F6.4°C 75% 2.3 mph ENE3.7 kmh ENE 3.5 mph5.6 kmh 30.33 in1027.1 mb - 0.00 in0.0 mm 0.00 in0.0 mm
08:15 AM 51.0°F10.6°C 43.3°F6.3°C 75% 3.5 mph NNE5.6 kmh NNE 3.5 mph5.6 kmh 30.33 in1027.1 mb - 0.00 in0.0 mm 0.00 in0.0 mm
08:10 AM 50.6°F10.3°C 43.4°F6.3°C 76% 3.5 mph ESE5.6 kmh ESE 5.8 mph9.3 kmh 30.33 in1027.1 mb - 0.00 in0.0 mm 0.00 in0.0 mm
08:05 AM 50.4°F10.2°C 43.1°F6.2°C 76% 1.2 mph ENE1.9 kmh ENE 1.2 mph1.9 kmh 30.33 in1027.1 mb - 0.00 in0.0 mm 0.00 in0.0 mm
08:00 AM 50.2°F10.1°C 43.2°F6.2°C 77% 2.3 mph NE3.7 kmh NE 3.5 mph5.6 kmh 30.33 in1027.1 mb - 0.00 in0.0 mm 0.00 in0.0 mm
07:55 AM 50.0°F10.0°C 43.1°F6.2°C 77% 3.5 mph NNE5.6 kmh NNE 3.5 mph5.6 kmh 30.33 in1027.1 mb - 0.00 in0.0 mm 0.00 in0.0 mm
07:50 AM 50.1°F10.1°C 43.2°F6.2°C 77% 2.3 mph N3.7 kmh N 3.5 mph5.6 kmh 30.33 in1027.1 mb - 0.00 in0.0 mm 0.00 in0.0 mm
07:45 AM 50.3°F10.2°C 43.4°F6.3°C 77% 1.2 mph NNE1.9 kmh NNE 1.2 mph1.9 kmh 30.33 in1027.1 mb - 0.00 in0.0 mm 0.00 in0.0 mm
07:40 AM 50.2°F10.1°C 43.3°F6.3°C 77% 3.5 mph ENE5.6 kmh ENE 3.5 mph5.6 kmh 30.32 in1026.8 mb - 0.00 in0.0 mm 0.00 in0.0 mm
07:35 AM 50.1°F10.1°C 43.2°F6.2°C 77% 3.5 mph E5.6 kmh E 4.6 mph7.4 kmh 30.32 in1026.8 mb - 0.00 in0.0 mm 0.00 in0.0 mm
07:30 AM 49.9°F9.9°C 43.0°F6.1°C 77% 3.5 mph ESE5.6 kmh ESE 5.8 mph9.3 kmh 30.32 in1026.8 mb - 0.00 in0.0 mm 0.00 in0.0 mm
07:25 AM 49.8°F9.9°C 43.2°F6.2°C 78% 1.2 mph N1.9 kmh N 2.3 mph3.7 kmh 30.32 in1026.8 mb - 0.00 in0.0 mm 0.00 in0.0 mm
07:20 AM 49.6°F9.8°C 43.0°F6.1°C 78% 2.3 mph N3.7 kmh N 3.5 mph5.6 kmh 30.32 in1026.8 mb - 0.00 in0.0 mm 0.00 in0.0 mm
07:15 AM 49.4°F9.7°C 42.8°F6.0°C 78% 3.5 mph NE5.6 kmh NE 5.8 mph9.3 kmh 30.32 in1026.8 mb - 0.00 in0.0 mm 0.00 in0.0 mm
07:10 AM 49.2°F9.6°C 42.9°F6.1°C 79% 2.3 mph ENE3.7 kmh ENE 3.5 mph5.6 kmh 30.32 in1026.8 mb - 0.00 in0.0 mm 0.00 in0.0 mm
07:05 AM 49.0°F9.4°C 42.8°F6.0°C 79% 4.6 mph E7.4 kmh E 5.8 mph9.3 kmh 30.31 in1026.4 mb - 0.00 in0.0 mm 0.00 in0.0 mm
07:00 AM 48.8°F9.3°C 42.6°F5.9°C 79% 3.5 mph E5.6 kmh E 5.8 mph9.3 kmh 30.31 in1026.4 mb - 0.00 in0.0 mm 0.00 in0.0 mm
06:55 AM 48.6°F9.2°C 42.7°F5.9°C 80% 2.3 mph E3.7 kmh E 3.5 mph5.6 kmh 30.31 in1026.4 mb - 0.00 in0.0 mm 0.00 in0.0 mm
06:50 AM 48.3°F9.1°C 42.4°F5.8°C 80% 2.3 mph E3.7 kmh E 3.5 mph5.6 kmh 30.31 in1026.4 mb - 0.00 in0.0 mm 0.00 in0.0 mm
06:45 AM 48.4°F9.1°C 42.5°F5.8°C 80% 2.3 mph NNE3.7 kmh NNE 3.5 mph5.6 kmh 30.31 in1026.4 mb - 0.00 in0.0 mm 0.00 in0.0 mm
06:40 AM 48.5°F9.2°C 42.6°F5.9°C 80% 2.3 mph E3.7 kmh E 3.5 mph5.6 kmh 30.31 in1026.4 mb - 0.00 in0.0 mm 0.00 in0.0 mm
06:35 AM 48.5°F9.2°C 42.6°F5.9°C 80% 2.3 mph E3.7 kmh E 3.5 mph5.6 kmh 30.31 in1026.4 mb - 0.00 in0.0 mm 0.00 in0.0 mm
06:30 AM 48.7°F9.3°C 42.8°F6.0°C 80% 1.2 mph ENE1.9 kmh ENE -- 30.31 in1026.4 mb - 0.00 in0.0 mm 0.00 in0.0 mm
06:25 AM 48.7°F9.3°C 42.8°F6.0°C 80% 1.2 mph ENE1.9 kmh ENE 2.3 mph3.7 kmh 30.31 in1026.4 mb - 0.00 in0.0 mm 0.00 in0.0 mm
06:20 AM 48.8°F9.3°C 42.9°F6.1°C 80% 1.2 mph ENE1.9 kmh ENE 2.3 mph3.7 kmh 30.31 in1026.4 mb - 0.00 in0.0 mm 0.00 in0.0 mm
06:15 AM 48.9°F9.4°C 42.7°F5.9°C 79% 2.3 mph ENE3.7 kmh ENE 2.3 mph3.7 kmh 30.31 in1026.4 mb - 0.00 in0.0 mm 0.00 in0.0 mm
06:10 AM 49.1°F9.5°C 42.9°F6.1°C 79% 2.3 mph ENE3.7 kmh ENE 3.5 mph5.6 kmh 30.32 in1026.8 mb - 0.00 in0.0 mm 0.00 in0.0 mm
06:05 AM 49.2°F9.6°C 43.0°F6.1°C 79% 1.2 mph ENE1.9 kmh ENE 2.3 mph3.7 kmh 30.32 in1026.8 mb - 0.00 in0.0 mm 0.00 in0.0 mm
06:00 AM 49.3°F9.6°C 43.1°F6.2°C 79% 2.3 mph E3.7 kmh E 3.5 mph5.6 kmh 30.31 in1026.4 mb - 0.00 in0.0 mm 0.00 in0.0 mm
05:55 AM 49.4°F9.7°C 43.2°F6.2°C 79% Calm Calm 1.2 mph1.9 kmh 30.30 in1026.1 mb - 0.00 in0.0 mm 0.00 in0.0 mm
05:50 AM 49.4°F9.7°C 43.2°F6.2°C 79% 1.2 mph ESE1.9 kmh ESE 3.5 mph5.6 kmh 30.30 in1026.1 mb - 0.00 in0.0 mm 0.00 in0.0 mm
05:45 AM 49.4°F9.7°C 43.2°F6.2°C 79% 2.3 mph ESE3.7 kmh ESE 3.5 mph5.6 kmh 30.30 in1026.1 mb - 0.00 in0.0 mm 0.00 in0.0 mm
05:40 AM 49.3°F9.6°C 43.1°F6.2°C 79% 3.5 mph ESE5.6 kmh ESE 3.5 mph5.6 kmh 30.30 in1026.1 mb - 0.00 in0.0 mm 0.00 in0.0 mm
05:35 AM 49.3°F9.6°C 43.1°F6.2°C 79% 2.3 mph ESE3.7 kmh ESE 3.5 mph5.6 kmh 30.30 in1026.1 mb - 0.00 in0.0 mm 0.00 in0.0 mm
05:30 AM 49.2°F9.6°C 43.3°F6.3°C 80% 2.3 mph ESE3.7 kmh ESE 3.5 mph5.6 kmh 30.30 in1026.1 mb - 0.00 in0.0 mm 0.00 in0.0 mm
05:25 AM 49.0°F9.4°C 43.1°F6.2°C 80% 4.6 mph E7.4 kmh E 4.6 mph7.4 kmh 30.30 in1026.1 mb - 0.00 in0.0 mm 0.00 in0.0 mm
05:20 AM 48.9°F9.4°C 43.0°F6.1°C 80% 2.3 mph ESE3.7 kmh ESE 3.5 mph5.6 kmh 30.30 in1026.1 mb - 0.00 in0.0 mm 0.00 in0.0 mm
05:15 AM 48.8°F9.3°C 42.9°F6.1°C 80% Calm Calm 1.2 mph1.9 kmh 30.30 in1026.1 mb - 0.00 in0.0 mm 0.00 in0.0 mm
05:10 AM 48.6°F9.2°C 42.8°F6.0°C 80% 2.3 mph E3.7 kmh E 3.5 mph5.6 kmh 30.29 in1025.7 mb - 0.00 in0.0 mm 0.00 in0.0 mm
05:05 AM 48.5°F9.2°C 42.6°F5.9°C 80% 1.2 mph ESE1.9 kmh ESE 2.3 mph3.7 kmh 30.29 in1025.7 mb - 0.00 in0.0 mm 0.00 in0.0 mm
05:00 AM 48.6°F9.2°C 42.7°F5.9°C 80% 1.2 mph ESE1.9 kmh ESE 1.2 mph1.9 kmh 30.29 in1025.7 mb - 0.00 in0.0 mm 0.00 in0.0 mm
04:55 AM 48.7°F9.3°C 42.8°F6.0°C 80% Calm Calm -- 30.29 in1025.7 mb - 0.00 in0.0 mm 0.00 in0.0 mm
04:50 AM 48.7°F9.3°C 42.8°F6.0°C 80% 1.2 mph SE1.9 kmh SE 2.3 mph3.7 kmh 30.29 in1025.7 mb - 0.00 in0.0 mm 0.00 in0.0 mm
04:45 AM 48.6°F9.2°C 42.8°F6.0°C 80% 2.3 mph E3.7 kmh E 4.6 mph7.4 kmh 30.28 in1025.4 mb - 0.00 in0.0 mm 0.00 in0.0 mm
04:40 AM 48.5°F9.2°C 42.6°F5.9°C 80% 3.5 mph E5.6 kmh E 8.1 mph13.0 kmh 30.28 in1025.4 mb - 0.00 in0.0 mm 0.00 in0.0 mm
04:35 AM 48.3°F9.1°C 42.4°F5.8°C 80% 3.5 mph E5.6 kmh E 4.6 mph7.4 kmh 30.28 in1025.4 mb - 0.00 in0.0 mm 0.00 in0.0 mm
04:30 AM 48.1°F8.9°C 42.2°F5.7°C 80% 4.6 mph E7.4 kmh E 4.6 mph7.4 kmh 30.28 in1025.4 mb - 0.00 in0.0 mm 0.00 in0.0 mm
04:25 AM 47.9°F8.8°C 42.0°F5.6°C 80% 5.8 mph ESE9.3 kmh ESE 8.1 mph13.0 kmh 30.27 in1025.1 mb - 0.00 in0.0 mm 0.00 in0.0 mm
04:20 AM 47.9°F8.8°C 42.0°F5.6°C 80% 3.5 mph E5.6 kmh E 3.5 mph5.6 kmh 30.27 in1025.1 mb - 0.00 in0.0 mm 0.00 in0.0 mm
04:15 AM 48.1°F8.9°C 42.2°F5.7°C 80% 3.5 mph ESE5.6 kmh ESE 3.5 mph5.6 kmh 30.27 in1025.1 mb - 0.00 in0.0 mm 0.00 in0.0 mm
04:10 AM 48.4°F9.1°C 42.5°F5.8°C 80% 3.5 mph ESE5.6 kmh ESE 3.5 mph5.6 kmh 30.28 in1025.4 mb - 0.00 in0.0 mm 0.00 in0.0 mm
04:05 AM 48.7°F9.3°C 42.8°F6.0°C 80% 4.6 mph E7.4 kmh E 4.6 mph7.4 kmh 30.28 in1025.4 mb - 0.00 in0.0 mm 0.00 in0.0 mm
04:00 AM 49.0°F9.4°C 42.8°F6.0°C 79% 3.5 mph E5.6 kmh E 4.6 mph7.4 kmh 30.27 in1025.1 mb - 0.00 in0.0 mm 0.00 in0.0 mm
03:55 AM 49.2°F9.6°C 43.3°F6.3°C 80% 2.3 mph E3.7 kmh E 3.5 mph5.6 kmh 30.27 in1025.1 mb - 0.00 in0.0 mm 0.00 in0.0 mm
03:50 AM 49.2°F9.6°C 43.3°F6.3°C 80% 3.5 mph E5.6 kmh E 6.9 mph11.1 kmh 30.27 in1025.1 mb - 0.00 in0.0 mm 0.00 in0.0 mm
03:45 AM 49.3°F9.6°C 43.1°F6.2°C 79% 5.8 mph E9.3 kmh E 8.1 mph13.0 kmh 30.27 in1025.1 mb - 0.00 in0.0 mm 0.00 in0.0 mm
03:40 AM 49.4°F9.7°C 43.2°F6.2°C 79% 3.5 mph E5.6 kmh E 3.5 mph5.6 kmh 30.28 in1025.4 mb - 0.00 in0.0 mm 0.00 in0.0 mm
03:35 AM 49.6°F9.8°C 43.3°F6.3°C 79% Calm Calm 3.5 mph5.6 kmh 30.28 in1025.4 mb - 0.00 in0.0 mm 0.00 in0.0 mm
03:30 AM 49.8°F9.9°C 43.6°F6.4°C 79% 2.3 mph NE3.7 kmh NE 3.5 mph5.6 kmh 30.28 in1025.4 mb - 0.00 in0.0 mm 0.00 in0.0 mm
03:25 AM 50.1°F10.1°C 43.5°F6.4°C 78% 3.5 mph E5.6 kmh E 3.5 mph5.6 kmh 30.28 in1025.4 mb - 0.00 in0.0 mm 0.00 in0.0 mm
03:20 AM 50.4°F10.2°C 43.8°F6.6°C 78% 3.5 mph E5.6 kmh E 3.5 mph5.6 kmh 30.28 in1025.4 mb - 0.00 in0.0 mm 0.00 in0.0 mm
03:15 AM 50.4°F10.2°C 43.8°F6.6°C 78% 6.9 mph E11.1 kmh E 6.9 mph11.1 kmh 30.28 in1025.4 mb - 0.00 in0.0 mm 0.00 in0.0 mm
03:10 AM 50.4°F10.2°C 43.8°F6.6°C 78% 4.6 mph E7.4 kmh E 6.9 mph11.1 kmh 30.28 in1025.4 mb - 0.00 in0.0 mm 0.00 in0.0 mm
03:05 AM 50.3°F10.2°C 43.7°F6.5°C 78% 5.8 mph E9.3 kmh E 6.9 mph11.1 kmh 30.28 in1025.4 mb - 0.00 in0.0 mm 0.00 in0.0 mm
03:00 AM 50.3°F10.2°C 43.7°F6.5°C 78% 4.6 mph E7.4 kmh E 9.2 mph14.8 kmh 30.28 in1025.4 mb - 0.00 in0.0 mm 0.00 in0.0 mm
02:55 AM 50.3°F10.2°C 43.7°F6.5°C 78% 3.5 mph E5.6 kmh E 3.5 mph5.6 kmh 30.28 in1025.4 mb - 0.00 in0.0 mm 0.00 in0.0 mm
02:50 AM 50.4°F10.2°C 43.8°F6.6°C 78% 2.3 mph E3.7 kmh E 6.9 mph11.1 kmh 30.28 in1025.4 mb - 0.00 in0.0 mm 0.00 in0.0 mm
02:45 AM 50.5°F10.3°C 43.9°F6.6°C 78% 2.3 mph SE3.7 kmh SE 3.5 mph5.6 kmh 30.29 in1025.7 mb - 0.00 in0.0 mm 0.00 in0.0 mm
02:40 AM 50.5°F10.3°C 43.9°F6.6°C 78% 4.6 mph E7.4 kmh E 8.1 mph13.0 kmh 30.28 in1025.4 mb - 0.00 in0.0 mm 0.00 in0.0 mm
02:35 AM 50.5°F10.3°C 43.9°F6.6°C 78% 3.5 mph ESE5.6 kmh ESE 5.8 mph9.3 kmh 30.29 in1025.7 mb - 0.00 in0.0 mm 0.00 in0.0 mm
02:30 AM 50.6°F10.3°C 43.9°F6.6°C 78% 3.5 mph SE5.6 kmh SE 3.5 mph5.6 kmh 30.28 in1025.4 mb - 0.00 in0.0 mm 0.00 in0.0 mm
02:25 AM 50.6°F10.3°C 44.0°F6.7°C 78% 4.6 mph ESE7.4 kmh ESE 6.9 mph11.1 kmh 30.29 in1025.7 mb - 0.00 in0.0 mm 0.00 in0.0 mm
02:20 AM 50.6°F10.3°C 44.0°F6.7°C 78% 2.3 mph ESE3.7 kmh ESE 3.5 mph5.6 kmh 30.29 in1025.7 mb - 0.00 in0.0 mm 0.00 in0.0 mm
02:15 AM 50.6°F10.3°C 44.0°F6.7°C 78% 2.3 mph SE3.7 kmh SE 3.5 mph5.6 kmh 30.29 in1025.7 mb - 0.00 in0.0 mm 0.00 in0.0 mm
02:10 AM 50.7°F10.4°C 43.7°F6.5°C 77% 3.5 mph ESE5.6 kmh ESE 3.5 mph5.6 kmh 30.29 in1025.7 mb - 0.00 in0.0 mm 0.00 in0.0 mm
02:05 AM 50.8°F10.4°C 43.8°F6.6°C 77% 1.2 mph SSE1.9 kmh SSE 2.3 mph3.7 kmh 30.29 in1025.7 mb - 0.00 in0.0 mm 0.00 in0.0 mm
02:00 AM 50.9°F10.5°C 43.9°F6.6°C 77% 1.2 mph ESE1.9 kmh ESE 1.2 mph1.9 kmh 30.29 in1025.7 mb - 0.00 in0.0 mm 0.00 in0.0 mm
01:55 AM 51.0°F10.6°C 44.0°F6.7°C 77% 2.3 mph E3.7 kmh E 3.5 mph5.6 kmh 30.29 in1025.7 mb - 0.00 in0.0 mm 0.00 in0.0 mm
01:50 AM 50.8°F10.4°C 43.8°F6.6°C 77% 4.6 mph E7.4 kmh E 6.9 mph11.1 kmh 30.29 in1025.7 mb - 0.00 in0.0 mm 0.00 in0.0 mm
01:45 AM 50.5°F10.3°C 43.9°F6.6°C 78% 4.6 mph E7.4 kmh E 8.1 mph13.0 kmh 30.29 in1025.7 mb - 0.00 in0.0 mm 0.00 in0.0 mm
01:40 AM 50.6°F10.3°C 44.0°F6.7°C 78% 2.3 mph SE3.7 kmh SE 3.5 mph5.6 kmh 30.29 in1025.7 mb - 0.00 in0.0 mm 0.00 in0.0 mm
01:35 AM 50.6°F10.3°C 43.7°F6.5°C 77% 3.5 mph S5.6 kmh S 4.6 mph7.4 kmh 30.29 in1025.7 mb - 0.00 in0.0 mm 0.00 in0.0 mm
01:30 AM 50.5°F10.3°C 43.9°F6.6°C 78% 8.1 mph ESE13.0 kmh ESE 8.1 mph13.0 kmh 30.29 in1025.7 mb - 0.00 in0.0 mm 0.00 in0.0 mm
01:25 AM 50.5°F10.3°C 43.6°F6.4°C 77% 4.6 mph ENE7.4 kmh ENE 8.1 mph13.0 kmh 30.29 in1025.7 mb - 0.00 in0.0 mm 0.00 in0.0 mm
01:20 AM 50.5°F10.3°C 43.6°F6.4°C 77% 2.3 mph E3.7 kmh E 3.5 mph5.6 kmh 30.30 in1026.1 mb - 0.00 in0.0 mm 0.00 in0.0 mm
01:15 AM 50.4°F10.2°C 43.8°F6.6°C 78% 2.3 mph SE3.7 kmh SE 3.5 mph5.6 kmh 30.29 in1025.7 mb - 0.00 in0.0 mm 0.00 in0.0 mm
01:10 AM 50.2°F10.1°C 43.6°F6.4°C 78% 2.3 mph SW3.7 kmh SW 3.5 mph5.6 kmh 30.30 in1026.1 mb - 0.00 in0.0 mm 0.00 in0.0 mm
01:05 AM 50.1°F10.1°C 43.5°F6.4°C 78% 1.2 mph NW1.9 kmh NW 4.6 mph7.4 kmh 30.29 in1025.7 mb - 0.00 in0.0 mm 0.00 in0.0 mm
01:00 AM 50.0°F10.0°C 43.4°F6.3°C 78% 2.3 mph E3.7 kmh E 3.5 mph5.6 kmh 30.29 in1025.7 mb - 0.00 in0.0 mm 0.00 in0.0 mm
12:55 AM 49.8°F9.9°C 43.2°F6.2°C 78% 1.2 mph N1.9 kmh N 2.3 mph3.7 kmh 30.30 in1026.1 mb - 0.00 in0.0 mm 0.00 in0.0 mm
12:50 AM 49.6°F9.8°C 43.3°F6.3°C 79% 1.2 mph N1.9 kmh N 2.3 mph3.7 kmh 30.29 in1025.7 mb - 0.00 in0.0 mm 0.00 in0.0 mm
12:45 AM 49.3°F9.6°C 43.0°F6.1°C 79% Calm Calm -- 30.29 in1025.7 mb - 0.00 in0.0 mm 0.00 in0.0 mm
12:40 AM 49.0°F9.4°C 42.8°F6.0°C 79% Calm Calm -- 30.29 in1025.7 mb - 0.00 in0.0 mm 0.00 in0.0 mm
12:35 AM 48.6°F9.2°C 42.7°F5.9°C 80% Calm Calm 1.2 mph1.9 kmh 30.29 in1025.7 mb - 0.00 in0.0 mm 0.00 in0.0 mm
12:30 AM 48.4°F9.1°C 42.5°F5.8°C 80% 2.3 mph N3.7 kmh N 3.5 mph5.6 kmh 30.29 in1025.7 mb - 0.00 in0.0 mm 0.00 in0.0 mm
12:25 AM 48.3°F9.1°C 42.4°F5.8°C 80% 2.3 mph ENE3.7 kmh ENE 3.5 mph5.6 kmh 30.29 in1025.7 mb - 0.00 in0.0 mm 0.00 in0.0 mm
12:20 AM 48.4°F9.1°C 42.1°F5.6°C 79% 1.2 mph ENE1.9 kmh ENE 2.3 mph3.7 kmh 30.29 in1025.7 mb - 0.00 in0.0 mm 0.00 in0.0 mm
12:15 AM 48.5°F9.2°C 42.3°F5.7°C 79% Calm Calm 1.2 mph1.9 kmh 30.29 in1025.7 mb - 0.00 in0.0 mm 0.00 in0.0 mm
12:10 AM 48.5°F9.2°C 42.3°F5.7°C 79% 2.3 mph ENE3.7 kmh ENE 3.5 mph5.6 kmh 30.29 in1025.7 mb - 0.00 in0.0 mm 0.00 in0.0 mm
12:05 AM 48.6°F9.2°C 42.4°F5.8°C 79% 1.2 mph E1.9 kmh E 2.3 mph3.7 kmh 30.29 in1025.7 mb - 0.00 in0.0 mm 0.00 in0.0 mm
12:00 AM 48.6°F9.2°C 42.4°F5.8°C 79% 1.2 mph E1.9 kmh E 2.3 mph3.7 kmh 30.29 in1025.7 mb - 0.00 in0.0 mm 0.00 in0.0 mm